sensor_id;sensor_type;location;lat;lon;timestamp;temperature;humidity
16154;DHT22;8182;55.648;13.208;2023-11-22T00:02:24;-1.30;1.00
16154;DHT22;8182;55.648;13.208;2023-11-22T00:04:54;-1.30;1.00
16154;DHT22;8182;55.648;13.208;2023-11-22T00:07:22;-1.40;1.00
16154;DHT22;8182;55.648;13.208;2023-11-22T00:09:52;-1.60;1.00
16154;DHT22;8182;55.648;13.208;2023-11-22T00:12:19;-1.80;1.00
16154;DHT22;8182;55.648;13.208;2023-11-22T00:14:46;-1.60;1.00
16154;DHT22;8182;55.648;13.208;2023-11-22T00:17:16;-1.60;1.00
16154;DHT22;8182;55.648;13.208;2023-11-22T00:19:44;-1.70;1.00
16154;DHT22;8182;55.648;13.208;2023-11-22T00:22:11;-1.60;1.00
16154;DHT22;8182;55.648;13.208;2023-11-22T00:24:40;-1.70;1.00
16154;DHT22;8182;55.648;13.208;2023-11-22T00:27:07;-1.80;1.00
16154;DHT22;8182;55.648;13.208;2023-11-22T00:29:36;-1.90;1.00
16154;DHT22;8182;55.648;13.208;2023-11-22T00:32:03;-2.00;1.00
16154;DHT22;8182;55.648;13.208;2023-11-22T00:34:30;-2.00;1.00
16154;DHT22;8182;55.648;13.208;2023-11-22T00:36:57;-2.00;1.00
16154;DHT22;8182;55.648;13.208;2023-11-22T00:39:24;-2.00;1.00
16154;DHT22;8182;55.648;13.208;2023-11-22T00:41:53;-2.10;1.00
16154;DHT22;8182;55.648;13.208;2023-11-22T00:44:21;-2.10;1.00
16154;DHT22;8182;55.648;13.208;2023-11-22T00:46:48;-2.20;1.00
16154;DHT22;8182;55.648;13.208;2023-11-22T00:49:15;-2.30;1.00
16154;DHT22;8182;55.648;13.208;2023-11-22T00:51:42;-2.20;1.00
16154;DHT22;8182;55.648;13.208;2023-11-22T00:54:10;-2.20;1.00
16154;DHT22;8182;55.648;13.208;2023-11-22T00:56:37;-2.20;1.00
16154;DHT22;8182;55.648;13.208;2023-11-22T00:59:05;-2.20;1.00
16154;DHT22;8182;55.648;13.208;2023-11-22T01:01:32;-2.30;1.00
16154;DHT22;8182;55.648;13.208;2023-11-22T01:03:59;-2.40;1.00
16154;DHT22;8182;55.648;13.208;2023-11-22T01:06:26;-2.40;1.00
16154;DHT22;8182;55.648;13.208;2023-11-22T01:08:57;-2.40;1.00
16154;DHT22;8182;55.648;13.208;2023-11-22T01:11:24;-2.40;1.00
16154;DHT22;8182;55.648;13.208;2023-11-22T01:13:52;-2.40;1.00
16154;DHT22;8182;55.648;13.208;2023-11-22T01:16:20;-2.40;1.00
16154;DHT22;8182;55.648;13.208;2023-11-22T01:18:48;-2.40;1.00
16154;DHT22;8182;55.648;13.208;2023-11-22T01:21:15;-2.40;1.00
16154;DHT22;8182;55.648;13.208;2023-11-22T01:23:42;-2.50;1.00
16154;DHT22;8182;55.648;13.208;2023-11-22T01:26:11;-2.50;1.00
16154;DHT22;8182;55.648;13.208;2023-11-22T01:28:38;-2.40;1.00
16154;DHT22;8182;55.648;13.208;2023-11-22T01:31:11;-2.40;1.00
16154;DHT22;8182;55.648;13.208;2023-11-22T01:33:42;-2.10;1.00
16154;DHT22;8182;55.648;13.208;2023-11-22T01:36:09;-1.90;1.00
16154;DHT22;8182;55.648;13.208;2023-11-22T01:38:36;-2.10;1.00
16154;DHT22;8182;55.648;13.208;2023-11-22T01:41:04;-2.50;1.00
16154;DHT22;8182;55.648;13.208;2023-11-22T01:43:31;-2.60;1.00
16154;DHT22;8182;55.648;13.208;2023-11-22T01:45:58;-2.60;1.00
16154;DHT22;8182;55.648;13.208;2023-11-22T01:48:26;-2.60;1.00
16154;DHT22;8182;55.648;13.208;2023-11-22T01:50:54;-2.70;1.00
16154;DHT22;8182;55.648;13.208;2023-11-22T01:53:21;-2.70;1.00
16154;DHT22;8182;55.648;13.208;2023-11-22T01:55:49;-2.80;1.00
16154;DHT22;8182;55.648;13.208;2023-11-22T01:58:17;-2.90;1.00
16154;DHT22;8182;55.648;13.208;2023-11-22T02:00:47;-3.00;1.00
16154;DHT22;8182;55.648;13.208;2023-11-22T02:03:15;-3.00;1.00
16154;DHT22;8182;55.648;13.208;2023-11-22T02:05:42;-2.90;1.00
16154;DHT22;8182;55.648;13.208;2023-11-22T02:08:11;-2.70;1.00
16154;DHT22;8182;55.648;13.208;2023-11-22T02:10:38;-2.70;1.00
16154;DHT22;8182;55.648;13.208;2023-11-22T02:13:05;-2.70;1.00
16154;DHT22;8182;55.648;13.208;2023-11-22T02:15:36;-2.80;1.00
16154;DHT22;8182;55.648;13.208;2023-11-22T02:18:04;-3.00;1.00
16154;DHT22;8182;55.648;13.208;2023-11-22T02:20:35;-2.90;1.00
16154;DHT22;8182;55.648;13.208;2023-11-22T02:23:07;-2.90;1.00
16154;DHT22;8182;55.648;13.208;2023-11-22T02:25:35;-2.90;1.00
16154;DHT22;8182;55.648;13.208;2023-11-22T02:28:05;-3.00;1.00
16154;DHT22;8182;55.648;13.208;2023-11-22T02:30:35;-3.20;1.00
16154;DHT22;8182;55.648;13.208;2023-11-22T02:33:02;-3.20;1.00
16154;DHT22;8182;55.648;13.208;2023-11-22T02:35:30;-3.30;1.00
16154;DHT22;8182;55.648;13.208;2023-11-22T02:37:57;-3.30;1.00
16154;DHT22;8182;55.648;13.208;2023-11-22T02:40:26;-3.20;1.00
16154;DHT22;8182;55.648;13.208;2023-11-22T02:42:54;-3.10;1.00
16154;DHT22;8182;55.648;13.208;2023-11-22T02:45:27;-3.10;1.00
16154;DHT22;8182;55.648;13.208;2023-11-22T02:47:54;-3.10;1.00
16154;DHT22;8182;55.648;13.208;2023-11-22T02:50:21;-3.20;1.00
16154;DHT22;8182;55.648;13.208;2023-11-22T02:52:48;-2.90;1.00
16154;DHT22;8182;55.648;13.208;2023-11-22T02:55:17;-2.90;1.00
16154;DHT22;8182;55.648;13.208;2023-11-22T02:57:45;-3.20;1.00
16154;DHT22;8182;55.648;13.208;2023-11-22T03:00:13;-3.30;1.00
16154;DHT22;8182;55.648;13.208;2023-11-22T03:02:48;-3.20;1.00
16154;DHT22;8182;55.648;13.208;2023-11-22T03:05:19;-3.30;1.00
16154;DHT22;8182;55.648;13.208;2023-11-22T03:07:46;-3.50;1.00
16154;DHT22;8182;55.648;13.208;2023-11-22T03:10:13;-3.50;1.00
16154;DHT22;8182;55.648;13.208;2023-11-22T03:12:40;-3.60;1.00
16154;DHT22;8182;55.648;13.208;2023-11-22T03:15:09;-3.70;1.00
16154;DHT22;8182;55.648;13.208;2023-11-22T03:17:37;-3.70;1.00
16154;DHT22;8182;55.648;13.208;2023-11-22T03:20:05;-3.50;1.00
16154;DHT22;8182;55.648;13.208;2023-11-22T03:22:35;-3.20;1.00
16154;DHT22;8182;55.648;13.208;2023-11-22T03:25:02;-3.10;1.00
16154;DHT22;8182;55.648;13.208;2023-11-22T03:27:29;-3.40;1.00
16154;DHT22;8182;55.648;13.208;2023-11-22T03:29:56;-3.60;1.00
16154;DHT22;8182;55.648;13.208;2023-11-22T03:32:28;-3.70;1.00
16154;DHT22;8182;55.648;13.208;2023-11-22T03:34:55;-3.80;1.00
16154;DHT22;8182;55.648;13.208;2023-11-22T03:37:23;-3.90;1.00
16154;DHT22;8182;55.648;13.208;2023-11-22T03:39:49;-3.80;1.00
16154;DHT22;8182;55.648;13.208;2023-11-22T03:42:16;-3.60;1.00
16154;DHT22;8182;55.648;13.208;2023-11-22T03:44:43;-3.60;1.00
16154;DHT22;8182;55.648;13.208;2023-11-22T03:47:11;-3.60;1.00
16154;DHT22;8182;55.648;13.208;2023-11-22T03:49:40;-3.30;1.00
16154;DHT22;8182;55.648;13.208;2023-11-22T03:52:09;-3.40;1.00
16154;DHT22;8182;55.648;13.208;2023-11-22T03:54:36;-3.70;1.00
16154;DHT22;8182;55.648;13.208;2023-11-22T03:57:04;-4.00;1.00
16154;DHT22;8182;55.648;13.208;2023-11-22T03:59:31;-4.00;1.00
16154;DHT22;8182;55.648;13.208;2023-11-22T04:01:58;-3.60;1.00
16154;DHT22;8182;55.648;13.208;2023-11-22T04:04:25;-3.60;1.00
16154;DHT22;8182;55.648;13.208;2023-11-22T04:06:56;-3.70;1.00
16154;DHT22;8182;55.648;13.208;2023-11-22T04:09:23;-3.90;1.00
16154;DHT22;8182;55.648;13.208;2023-11-22T04:11:50;-3.90;1.00
16154;DHT22;8182;55.648;13.208;2023-11-22T04:14:16;-3.90;1.00
16154;DHT22;8182;55.648;13.208;2023-11-22T04:16:46;-3.90;1.00
16154;DHT22;8182;55.648;13.208;2023-11-22T04:19:12;-3.80;1.00
16154;DHT22;8182;55.648;13.208;2023-11-22T04:21:39;-3.60;1.00
16154;DHT22;8182;55.648;13.208;2023-11-22T04:24:08;-3.80;1.00
16154;DHT22;8182;55.648;13.208;2023-11-22T04:26:37;-3.50;1.00
16154;DHT22;8182;55.648;13.208;2023-11-22T04:29:04;-3.60;1.00
16154;DHT22;8182;55.648;13.208;2023-11-22T04:31:31;-3.50;1.00
16154;DHT22;8182;55.648;13.208;2023-11-22T04:33:57;-3.60;1.00
16154;DHT22;8182;55.648;13.208;2023-11-22T04:36:26;-3.80;1.00
16154;DHT22;8182;55.648;13.208;2023-11-22T04:38:52;-3.70;1.00
16154;DHT22;8182;55.648;13.208;2023-11-22T04:41:21;-3.40;1.00
16154;DHT22;8182;55.648;13.208;2023-11-22T04:43:50;-3.30;1.00
16154;DHT22;8182;55.648;13.208;2023-11-22T04:46:17;-3.60;1.00
16154;DHT22;8182;55.648;13.208;2023-11-22T04:48:44;-3.80;1.00
16154;DHT22;8182;55.648;13.208;2023-11-22T04:51:13;-3.70;1.00
16154;DHT22;8182;55.648;13.208;2023-11-22T04:53:42;-3.90;1.00
16154;DHT22;8182;55.648;13.208;2023-11-22T04:56:09;-3.70;1.00
16154;DHT22;8182;55.648;13.208;2023-11-22T04:58:38;-3.80;1.00
16154;DHT22;8182;55.648;13.208;2023-11-22T05:01:05;-4.00;1.00
16154;DHT22;8182;55.648;13.208;2023-11-22T05:03:32;-4.10;1.00
16154;DHT22;8182;55.648;13.208;2023-11-22T05:05:59;-3.90;1.00
16154;DHT22;8182;55.648;13.208;2023-11-22T05:08:26;-4.10;1.00
16154;DHT22;8182;55.648;13.208;2023-11-22T05:10:53;-4.00;1.00
16154;DHT22;8182;55.648;13.208;2023-11-22T05:13:20;-3.90;1.00
16154;DHT22;8182;55.648;13.208;2023-11-22T05:15:48;-4.00;1.00
16154;DHT22;8182;55.648;13.208;2023-11-22T05:18:16;-3.80;1.00
16154;DHT22;8182;55.648;13.208;2023-11-22T05:20:43;-3.60;1.00
16154;DHT22;8182;55.648;13.208;2023-11-22T05:23:09;-3.70;1.00
16154;DHT22;8182;55.648;13.208;2023-11-22T05:25:37;-3.80;1.00
16154;DHT22;8182;55.648;13.208;2023-11-22T05:28:04;-4.10;1.00
16154;DHT22;8182;55.648;13.208;2023-11-22T05:30:31;-4.00;1.00
16154;DHT22;8182;55.648;13.208;2023-11-22T05:33:02;-4.20;1.00
16154;DHT22;8182;55.648;13.208;2023-11-22T05:35:29;-4.20;1.00
16154;DHT22;8182;55.648;13.208;2023-11-22T05:37:58;-4.10;1.00
16154;DHT22;8182;55.648;13.208;2023-11-22T05:40:24;-4.10;1.00
16154;DHT22;8182;55.648;13.208;2023-11-22T05:42:52;-4.20;1.00
16154;DHT22;8182;55.648;13.208;2023-11-22T05:45:18;-4.20;1.00
16154;DHT22;8182;55.648;13.208;2023-11-22T05:47:46;-4.10;1.00
16154;DHT22;8182;55.648;13.208;2023-11-22T05:50:14;-3.90;1.00
16154;DHT22;8182;55.648;13.208;2023-11-22T05:52:42;-3.70;1.00
16154;DHT22;8182;55.648;13.208;2023-11-22T05:55:09;-3.70;1.00
16154;DHT22;8182;55.648;13.208;2023-11-22T05:57:39;-3.60;1.00
16154;DHT22;8182;55.648;13.208;2023-11-22T06:00:07;-3.70;1.00
16154;DHT22;8182;55.648;13.208;2023-11-22T06:02:34;-3.60;1.00
16154;DHT22;8182;55.648;13.208;2023-11-22T06:05:02;-3.50;1.00
16154;DHT22;8182;55.648;13.208;2023-11-22T06:07:30;-3.60;1.00
16154;DHT22;8182;55.648;13.208;2023-11-22T06:10:00;-4.00;1.00
16154;DHT22;8182;55.648;13.208;2023-11-22T06:12:28;-4.00;1.00
16154;DHT22;8182;55.648;13.208;2023-11-22T06:14:55;-3.70;1.00
16154;DHT22;8182;55.648;13.208;2023-11-22T06:17:22;-3.70;1.00
16154;DHT22;8182;55.648;13.208;2023-11-22T06:19:50;-3.80;1.00
16154;DHT22;8182;55.648;13.208;2023-11-22T06:22:17;-4.00;1.00
16154;DHT22;8182;55.648;13.208;2023-11-22T06:24:46;-3.90;1.00
16154;DHT22;8182;55.648;13.208;2023-11-22T06:27:14;-3.80;1.00
16154;DHT22;8182;55.648;13.208;2023-11-22T06:29:41;-3.90;1.00
16154;DHT22;8182;55.648;13.208;2023-11-22T06:32:09;-3.70;1.00
16154;DHT22;8182;55.648;13.208;2023-11-22T06:34:36;-3.60;1.00
16154;DHT22;8182;55.648;13.208;2023-11-22T06:37:03;-3.90;1.00
16154;DHT22;8182;55.648;13.208;2023-11-22T06:39:32;-4.20;1.00
16154;DHT22;8182;55.648;13.208;2023-11-22T06:42:00;-4.20;1.00
16154;DHT22;8182;55.648;13.208;2023-11-22T06:44:27;-4.20;1.00
16154;DHT22;8182;55.648;13.208;2023-11-22T06:46:54;-4.10;1.00
16154;DHT22;8182;55.648;13.208;2023-11-22T06:49:23;-4.10;1.00
16154;DHT22;8182;55.648;13.208;2023-11-22T06:51:50;-4.00;1.00
16154;DHT22;8182;55.648;13.208;2023-11-22T06:54:18;-3.90;1.00
16154;DHT22;8182;55.648;13.208;2023-11-22T06:56:45;-4.10;1.00
16154;DHT22;8182;55.648;13.208;2023-11-22T06:59:14;-3.90;1.00
16154;DHT22;8182;55.648;13.208;2023-11-22T07:01:41;-3.70;1.00
16154;DHT22;8182;55.648;13.208;2023-11-22T07:04:07;-3.60;1.00
16154;DHT22;8182;55.648;13.208;2023-11-22T07:06:34;-3.60;1.00
16154;DHT22;8182;55.648;13.208;2023-11-22T07:09:03;-3.60;1.00
16154;DHT22;8182;55.648;13.208;2023-11-22T07:11:30;-3.90;1.00
16154;DHT22;8182;55.648;13.208;2023-11-22T07:13:57;-3.90;1.00
16154;DHT22;8182;55.648;13.208;2023-11-22T07:16:25;-3.90;1.00
16154;DHT22;8182;55.648;13.208;2023-11-22T07:18:53;-3.80;1.00
16154;DHT22;8182;55.648;13.208;2023-11-22T07:21:20;-3.70;1.00
16154;DHT22;8182;55.648;13.208;2023-11-22T07:23:47;-3.60;1.00
16154;DHT22;8182;55.648;13.208;2023-11-22T07:26:14;-3.60;1.00
16154;DHT22;8182;55.648;13.208;2023-11-22T07:28:41;-3.40;1.00
16154;DHT22;8182;55.648;13.208;2023-11-22T07:31:08;-3.20;1.00
16154;DHT22;8182;55.648;13.208;2023-11-22T07:33:40;-3.10;1.00
16154;DHT22;8182;55.648;13.208;2023-11-22T07:36:07;-3.10;1.00
16154;DHT22;8182;55.648;13.208;2023-11-22T07:38:35;-3.10;1.00
16154;DHT22;8182;55.648;13.208;2023-11-22T07:41:01;-2.90;1.00
16154;DHT22;8182;55.648;13.208;2023-11-22T07:43:28;-3.00;1.00
16154;DHT22;8182;55.648;13.208;2023-11-22T07:45:56;-2.80;1.00
16154;DHT22;8182;55.648;13.208;2023-11-22T07:48:25;-2.80;1.00
16154;DHT22;8182;55.648;13.208;2023-11-22T07:50:56;-2.80;1.00
16154;DHT22;8182;55.648;13.208;2023-11-22T07:53:24;-2.80;1.00
16154;DHT22;8182;55.648;13.208;2023-11-22T07:55:54;-2.70;1.00
16154;DHT22;8182;55.648;13.208;2023-11-22T07:58:22;-2.60;1.00
16154;DHT22;8182;55.648;13.208;2023-11-22T08:00:49;-2.50;1.00
16154;DHT22;8182;55.648;13.208;2023-11-22T08:03:16;-2.40;1.00
16154;DHT22;8182;55.648;13.208;2023-11-22T08:05:48;-2.40;1.00
16154;DHT22;8182;55.648;13.208;2023-11-22T08:08:18;-2.30;1.00
16154;DHT22;8182;55.648;13.208;2023-11-22T08:10:46;-2.20;1.00
16154;DHT22;8182;55.648;13.208;2023-11-22T08:13:13;-2.10;1.00
16154;DHT22;8182;55.648;13.208;2023-11-22T08:15:40;-2.00;1.00
16154;DHT22;8182;55.648;13.208;2023-11-22T08:18:07;-1.90;1.00
16154;DHT22;8182;55.648;13.208;2023-11-22T08:20:35;-1.80;1.00
16154;DHT22;8182;55.648;13.208;2023-11-22T08:23:04;-1.70;1.00
16154;DHT22;8182;55.648;13.208;2023-11-22T08:25:33;-1.70;1.00
16154;DHT22;8182;55.648;13.208;2023-11-22T08:28:00;-1.60;1.00
16154;DHT22;8182;55.648;13.208;2023-11-22T08:30:27;-1.60;1.00
16154;DHT22;8182;55.648;13.208;2023-11-22T08:32:54;-1.40;1.00
16154;DHT22;8182;55.648;13.208;2023-11-22T08:35:21;-1.30;1.00
16154;DHT22;8182;55.648;13.208;2023-11-22T08:37:53;-1.40;1.00
16154;DHT22;8182;55.648;13.208;2023-11-22T08:40:23;-1.30;1.00
16154;DHT22;8182;55.648;13.208;2023-11-22T08:42:52;-1.20;1.00
16154;DHT22;8182;55.648;13.208;2023-11-22T08:45:23;-1.20;1.00
16154;DHT22;8182;55.648;13.208;2023-11-22T08:47:50;-1.20;1.00
16154;DHT22;8182;55.648;13.208;2023-11-22T08:50:17;-1.10;1.00
16154;DHT22;8182;55.648;13.208;2023-11-22T08:52:43;-1.10;1.00
16154;DHT22;8182;55.648;13.208;2023-11-22T08:55:12;-1.00;1.00
16154;DHT22;8182;55.648;13.208;2023-11-22T08:57:40;-1.00;1.00
16154;DHT22;8182;55.648;13.208;2023-11-22T09:00:10;-0.90;1.00
16154;DHT22;8182;55.648;13.208;2023-11-22T09:02:37;-0.90;1.00
16154;DHT22;8182;55.648;13.208;2023-11-22T09:05:05;-0.80;1.00
16154;DHT22;8182;55.648;13.208;2023-11-22T09:07:33;-0.70;1.00
16154;DHT22;8182;55.648;13.208;2023-11-22T09:10:05;-0.70;1.00
16154;DHT22;8182;55.648;13.208;2023-11-22T09:12:35;-0.60;1.00
16154;DHT22;8182;55.648;13.208;2023-11-22T09:15:03;-0.50;1.00
16154;DHT22;8182;55.648;13.208;2023-11-22T09:17:35;-0.50;1.00
16154;DHT22;8182;55.648;13.208;2023-11-22T09:20:05;-0.50;1.00
16154;DHT22;8182;55.648;13.208;2023-11-22T09:22:36;-0.40;1.00
16154;DHT22;8182;55.648;13.208;2023-11-22T09:25:05;-0.40;1.00
16154;DHT22;8182;55.648;13.208;2023-11-22T09:27:35;-0.40;1.00
16154;DHT22;8182;55.648;13.208;2023-11-22T09:30:03;-0.30;1.00
16154;DHT22;8182;55.648;13.208;2023-11-22T09:32:35;-0.30;1.00
16154;DHT22;8182;55.648;13.208;2023-11-22T09:35:04;-0.30;1.00
16154;DHT22;8182;55.648;13.208;2023-11-22T09:37:31;-0.20;1.00
16154;DHT22;8182;55.648;13.208;2023-11-22T09:39:58;-0.20;1.00
16154;DHT22;8182;55.648;13.208;2023-11-22T09:42:26;-0.10;1.00
16154;DHT22;8182;55.648;13.208;2023-11-22T09:44:53;0.00;1.00
16154;DHT22;8182;55.648;13.208;2023-11-22T09:47:20;0.00;1.00
16154;DHT22;8182;55.648;13.208;2023-11-22T09:49:50;0.10;1.00
16154;DHT22;8182;55.648;13.208;2023-11-22T09:52:21;0.20;1.00
16154;DHT22;8182;55.648;13.208;2023-11-22T09:54:50;0.30;1.00
16154;DHT22;8182;55.648;13.208;2023-11-22T09:57:18;0.30;1.00
16154;DHT22;8182;55.648;13.208;2023-11-22T09:59:45;0.40;1.00
16154;DHT22;8182;55.648;13.208;2023-11-22T10:02:17;0.40;1.00
16154;DHT22;8182;55.648;13.208;2023-11-22T10:04:45;0.50;1.00
16154;DHT22;8182;55.648;13.208;2023-11-22T10:07:14;0.50;1.00
16154;DHT22;8182;55.648;13.208;2023-11-22T10:09:42;0.60;1.00
16154;DHT22;8182;55.648;13.208;2023-11-22T10:12:12;0.70;1.00
16154;DHT22;8182;55.648;13.208;2023-11-22T10:14:40;0.70;1.00
16154;DHT22;8182;55.648;13.208;2023-11-22T10:17:07;0.80;1.00
16154;DHT22;8182;55.648;13.208;2023-11-22T10:19:35;1.00;1.00
16154;DHT22;8182;55.648;13.208;2023-11-22T10:22:04;1.10;1.00
16154;DHT22;8182;55.648;13.208;2023-11-22T10:24:33;1.20;1.00
16154;DHT22;8182;55.648;13.208;2023-11-22T10:27:00;1.20;1.00
16154;DHT22;8182;55.648;13.208;2023-11-22T10:29:27;1.20;1.00
16154;DHT22;8182;55.648;13.208;2023-11-22T10:31:54;1.20;1.00
16154;DHT22;8182;55.648;13.208;2023-11-22T10:34:23;1.20;1.00
16154;DHT22;8182;55.648;13.208;2023-11-22T10:36:51;1.30;1.00
16154;DHT22;8182;55.648;13.208;2023-11-22T10:39:19;1.50;1.00
16154;DHT22;8182;55.648;13.208;2023-11-22T10:41:49;1.60;1.00
16154;DHT22;8182;55.648;13.208;2023-11-22T10:44:20;1.70;1.00
16154;DHT22;8182;55.648;13.208;2023-11-22T10:46:47;1.80;1.00
16154;DHT22;8182;55.648;13.208;2023-11-22T10:49:16;2.00;1.00
16154;DHT22;8182;55.648;13.208;2023-11-22T10:51:44;2.00;1.00
16154;DHT22;8182;55.648;13.208;2023-11-22T10:54:13;2.10;1.00
16154;DHT22;8182;55.648;13.208;2023-11-22T10:56:40;2.20;1.00
16154;DHT22;8182;55.648;13.208;2023-11-22T10:59:13;2.30;1.00
16154;DHT22;8182;55.648;13.208;2023-11-22T11:01:44;2.40;1.00
16154;DHT22;8182;55.648;13.208;2023-11-22T11:04:19;2.50;1.00
16154;DHT22;8182;55.648;13.208;2023-11-22T11:06:51;2.50;1.00
16154;DHT22;8182;55.648;13.208;2023-11-22T11:09:19;2.50;1.00
16154;DHT22;8182;55.648;13.208;2023-11-22T11:11:50;2.50;1.00
16154;DHT22;8182;55.648;13.208;2023-11-22T11:14:21;2.70;1.00
16154;DHT22;8182;55.648;13.208;2023-11-22T11:16:48;2.70;1.00
16154;DHT22;8182;55.648;13.208;2023-11-22T11:19:20;2.80;1.00
16154;DHT22;8182;55.648;13.208;2023-11-22T11:21:48;3.10;1.00
16154;DHT22;8182;55.648;13.208;2023-11-22T11:24:22;3.00;1.00
16154;DHT22;8182;55.648;13.208;2023-11-22T11:26:49;3.00;1.00
16154;DHT22;8182;55.648;13.208;2023-11-22T11:29:32;3.00;1.00
16154;DHT22;8182;55.648;13.208;2023-11-22T11:31:59;3.10;1.00
16154;DHT22;8182;55.648;13.208;2023-11-22T11:34:31;3.20;1.00
16154;DHT22;8182;55.648;13.208;2023-11-22T11:36:59;3.00;1.00
16154;DHT22;8182;55.648;13.208;2023-11-22T11:39:27;2.90;1.00
16154;DHT22;8182;55.648;13.208;2023-11-22T11:42:08;2.90;1.00
16154;DHT22;8182;55.648;13.208;2023-11-22T11:44:50;3.00;1.00
16154;DHT22;8182;55.648;13.208;2023-11-22T11:47:17;2.90;1.00
16154;DHT22;8182;55.648;13.208;2023-11-22T11:49:44;2.90;1.00
16154;DHT22;8182;55.648;13.208;2023-11-22T11:52:11;2.90;1.00
16154;DHT22;8182;55.648;13.208;2023-11-22T11:54:39;3.00;1.00
16154;DHT22;8182;55.648;13.208;2023-11-22T11:57:06;3.00;1.00
16154;DHT22;8182;55.648;13.208;2023-11-22T11:59:33;3.00;1.00
16154;DHT22;8182;55.648;13.208;2023-11-22T12:02:02;3.00;1.00
16154;DHT22;8182;55.648;13.208;2023-11-22T12:04:37;3.00;1.00
16154;DHT22;8182;55.648;13.208;2023-11-22T12:07:08;3.00;1.00
16154;DHT22;8182;55.648;13.208;2023-11-22T12:09:35;3.00;1.00
16154;DHT22;8182;55.648;13.208;2023-11-22T12:12:01;2.80;1.00
16154;DHT22;8182;55.648;13.208;2023-11-22T12:14:29;3.00;1.00
16154;DHT22;8182;55.648;13.208;2023-11-22T12:16:58;2.90;1.00
16154;DHT22;8182;55.648;13.208;2023-11-22T12:19:28;3.10;1.00
16154;DHT22;8182;55.648;13.208;2023-11-22T12:21:56;3.10;1.00
16154;DHT22;8182;55.648;13.208;2023-11-22T12:24:24;3.10;1.00
16154;DHT22;8182;55.648;13.208;2023-11-22T12:26:51;3.20;1.00
16154;DHT22;8182;55.648;13.208;2023-11-22T12:29:23;3.10;1.00
16154;DHT22;8182;55.648;13.208;2023-11-22T12:31:51;3.20;1.00
16154;DHT22;8182;55.648;13.208;2023-11-22T12:34:21;3.30;1.00
16154;DHT22;8182;55.648;13.208;2023-11-22T12:36:50;3.30;1.00
16154;DHT22;8182;55.648;13.208;2023-11-22T12:39:20;3.10;1.00
16154;DHT22;8182;55.648;13.208;2023-11-22T12:41:48;3.20;1.00
16154;DHT22;8182;55.648;13.208;2023-11-22T12:44:16;3.10;1.00
16154;DHT22;8182;55.648;13.208;2023-11-22T12:46:47;3.10;1.00
16154;DHT22;8182;55.648;13.208;2023-11-22T12:49:17;3.10;1.00
16154;DHT22;8182;55.648;13.208;2023-11-22T12:52:05;3.00;1.00
16154;DHT22;8182;55.648;13.208;2023-11-22T12:54:32;3.20;1.00
16154;DHT22;8182;55.648;13.208;2023-11-22T12:57:00;3.10;1.00
16154;DHT22;8182;55.648;13.208;2023-11-22T12:59:28;3.20;1.00
16154;DHT22;8182;55.648;13.208;2023-11-22T13:01:57;3.20;1.00
16154;DHT22;8182;55.648;13.208;2023-11-22T13:04:28;3.30;1.00
16154;DHT22;8182;55.648;13.208;2023-11-22T13:06:56;3.30;1.00
16154;DHT22;8182;55.648;13.208;2023-11-22T13:09:26;3.40;1.00
16154;DHT22;8182;55.648;13.208;2023-11-22T13:11:53;3.40;1.00
16154;DHT22;8182;55.648;13.208;2023-11-22T13:14:20;3.20;1.00
16154;DHT22;8182;55.648;13.208;2023-11-22T13:17:01;3.40;1.00
16154;DHT22;8182;55.648;13.208;2023-11-22T13:19:29;3.40;1.00
16154;DHT22;8182;55.648;13.208;2023-11-22T13:21:56;3.30;1.00
16154;DHT22;8182;55.648;13.208;2023-11-22T13:24:23;3.30;1.00
16154;DHT22;8182;55.648;13.208;2023-11-22T13:26:51;3.30;1.00
16154;DHT22;8182;55.648;13.208;2023-11-22T13:29:22;3.20;1.00
16154;DHT22;8182;55.648;13.208;2023-11-22T13:31:49;3.20;1.00
16154;DHT22;8182;55.648;13.208;2023-11-22T13:34:17;3.40;1.00
16154;DHT22;8182;55.648;13.208;2023-11-22T13:36:44;3.40;1.00
16154;DHT22;8182;55.648;13.208;2023-11-22T13:39:11;3.40;1.00
16154;DHT22;8182;55.648;13.208;2023-11-22T13:41:40;3.30;1.00
16154;DHT22;8182;55.648;13.208;2023-11-22T13:44:08;3.30;1.00
16154;DHT22;8182;55.648;13.208;2023-11-22T13:46:36;3.30;1.00
16154;DHT22;8182;55.648;13.208;2023-11-22T13:49:03;3.30;1.00
16154;DHT22;8182;55.648;13.208;2023-11-22T13:51:31;3.30;1.00
16154;DHT22;8182;55.648;13.208;2023-11-22T13:53:58;3.30;1.00
16154;DHT22;8182;55.648;13.208;2023-11-22T13:56:25;3.20;1.00
16154;DHT22;8182;55.648;13.208;2023-11-22T13:58:52;3.30;1.00
16154;DHT22;8182;55.648;13.208;2023-11-22T14:01:20;3.20;1.00
16154;DHT22;8182;55.648;13.208;2023-11-22T14:03:47;3.30;1.00
16154;DHT22;8182;55.648;13.208;2023-11-22T14:06:14;3.40;1.00
16154;DHT22;8182;55.648;13.208;2023-11-22T14:08:42;3.30;1.00
16154;DHT22;8182;55.648;13.208;2023-11-22T14:11:10;3.30;1.00
16154;DHT22;8182;55.648;13.208;2023-11-22T14:13:37;3.20;1.00
16154;DHT22;8182;55.648;13.208;2023-11-22T14:16:05;3.40;1.00
16154;DHT22;8182;55.648;13.208;2023-11-22T14:18:34;3.40;1.00
16154;DHT22;8182;55.648;13.208;2023-11-22T14:21:01;3.40;1.00
16154;DHT22;8182;55.648;13.208;2023-11-22T14:23:29;3.40;1.00
16154;DHT22;8182;55.648;13.208;2023-11-22T14:25:56;3.50;1.00
16154;DHT22;8182;55.648;13.208;2023-11-22T14:28:23;3.40;1.00
16154;DHT22;8182;55.648;13.208;2023-11-22T14:30:50;3.40;1.00
16154;DHT22;8182;55.648;13.208;2023-11-22T14:33:20;3.50;1.00
16154;DHT22;8182;55.648;13.208;2023-11-22T14:35:48;3.40;1.00
16154;DHT22;8182;55.648;13.208;2023-11-22T14:38:15;3.40;1.00
16154;DHT22;8182;55.648;13.208;2023-11-22T14:40:43;3.40;1.00
16154;DHT22;8182;55.648;13.208;2023-11-22T14:43:10;3.20;1.00
16154;DHT22;8182;55.648;13.208;2023-11-22T14:45:38;3.20;1.00
16154;DHT22;8182;55.648;13.208;2023-11-22T14:48:06;3.30;1.00
16154;DHT22;8182;55.648;13.208;2023-11-22T14:50:34;3.40;1.00
16154;DHT22;8182;55.648;13.208;2023-11-22T14:53:02;3.50;1.00
16154;DHT22;8182;55.648;13.208;2023-11-22T14:55:29;3.30;1.00
16154;DHT22;8182;55.648;13.208;2023-11-22T14:57:56;3.40;1.00
16154;DHT22;8182;55.648;13.208;2023-11-22T15:00:32;3.40;1.00
16154;DHT22;8182;55.648;13.208;2023-11-22T15:03:07;3.40;1.00
16154;DHT22;8182;55.648;13.208;2023-11-22T15:05:34;3.40;1.00
16154;DHT22;8182;55.648;13.208;2023-11-22T15:08:01;3.40;1.00
16154;DHT22;8182;55.648;13.208;2023-11-22T15:10:29;3.40;1.00
16154;DHT22;8182;55.648;13.208;2023-11-22T15:12:59;3.30;1.00
16154;DHT22;8182;55.648;13.208;2023-11-22T15:15:28;3.30;1.00
16154;DHT22;8182;55.648;13.208;2023-11-22T15:17:54;3.30;1.00
16154;DHT22;8182;55.648;13.208;2023-11-22T15:20:21;3.50;1.00
16154;DHT22;8182;55.648;13.208;2023-11-22T15:22:48;3.50;1.00
16154;DHT22;8182;55.648;13.208;2023-11-22T15:25:15;3.50;99.90
16154;DHT22;8182;55.648;13.208;2023-11-22T15:27:43;3.50;99.90
16154;DHT22;8182;55.648;13.208;2023-11-22T15:30:11;3.40;99.90
16154;DHT22;8182;55.648;13.208;2023-11-22T15:32:38;3.50;1.00
16154;DHT22;8182;55.648;13.208;2023-11-22T15:35:05;3.50;99.90
16154;DHT22;8182;55.648;13.208;2023-11-22T15:37:33;3.50;99.90
16154;DHT22;8182;55.648;13.208;2023-11-22T15:40:00;3.60;99.90
16154;DHT22;8182;55.648;13.208;2023-11-22T15:42:37;3.60;99.90
16154;DHT22;8182;55.648;13.208;2023-11-22T15:45:08;3.70;99.90
16154;DHT22;8182;55.648;13.208;2023-11-22T15:47:35;3.70;99.90
16154;DHT22;8182;55.648;13.208;2023-11-22T15:50:03;3.70;99.90
16154;DHT22;8182;55.648;13.208;2023-11-22T15:52:31;3.70;99.90
16154;DHT22;8182;55.648;13.208;2023-11-22T15:54:58;3.60;99.90
16154;DHT22;8182;55.648;13.208;2023-11-22T15:57:25;3.60;99.90
16154;DHT22;8182;55.648;13.208;2023-11-22T15:59:52;3.60;99.90